sensor_id;sensor_type;location;lat;lon;timestamp;pressure;altitude;pressure_sealevel;temperature;humidity
11198;BME280;5655;48.744;9.162;2022-12-07T00:00:53;96130.47;;;5.02;100.00
11198;BME280;5655;48.744;9.162;2022-12-07T00:03:18;96126.69;;;5.40;100.00
11198;BME280;5655;48.744;9.162;2022-12-07T00:05:43;96139.50;;;5.50;100.00
11198;BME280;5655;48.744;9.162;2022-12-07T00:08:09;96130.56;;;5.42;100.00
11198;BME280;5655;48.744;9.162;2022-12-07T00:10:34;96127.81;;;5.27;100.00
11198;BME280;5655;48.744;9.162;2022-12-07T00:12:59;96127.56;;;5.56;100.00
11198;BME280;5655;48.744;9.162;2022-12-07T00:15:25;96126.81;;;5.43;100.00
11198;BME280;5655;48.744;9.162;2022-12-07T00:17:50;96132.00;;;5.28;100.00
11198;BME280;5655;48.744;9.162;2022-12-07T00:20:16;96124.91;;;5.32;100.00
11198;BME280;5655;48.744;9.162;2022-12-07T00:22:41;96129.81;;;5.30;100.00
11198;BME280;5655;48.744;9.162;2022-12-07T00:25:06;96126.06;;;5.07;100.00
11198;BME280;5655;48.744;9.162;2022-12-07T00:27:32;96123.84;;;5.09;100.00
11198;BME280;5655;48.744;9.162;2022-12-07T00:29:57;96126.91;;;5.23;100.00
11198;BME280;5655;48.744;9.162;2022-12-07T00:32:22;96116.56;;;5.18;100.00
11198;BME280;5655;48.744;9.162;2022-12-07T00:34:47;96130.59;;;5.06;100.00
11198;BME280;5655;48.744;9.162;2022-12-07T00:37:13;96126.94;;;4.98;100.00
11198;BME280;5655;48.744;9.162;2022-12-07T00:39:38;96124.28;;;4.98;100.00
11198;BME280;5655;48.744;9.162;2022-12-07T00:42:03;96123.63;;;5.01;100.00
11198;BME280;5655;48.744;9.162;2022-12-07T00:44:29;96127.81;;;5.15;100.00
11198;BME280;5655;48.744;9.162;2022-12-07T00:46:54;96127.38;;;5.00;100.00
11198;BME280;5655;48.744;9.162;2022-12-07T00:49:20;96114.91;;;4.89;100.00
11198;BME280;5655;48.744;9.162;2022-12-07T00:51:48;96124.78;;;5.40;100.00
11198;BME280;5655;48.744;9.162;2022-12-07T00:54:14;96116.94;;;5.44;100.00
11198;BME280;5655;48.744;9.162;2022-12-07T00:56:39;96120.19;;;5.25;100.00
11198;BME280;5655;48.744;9.162;2022-12-07T00:59:05;96126.63;;;5.12;100.00
11198;BME280;5655;48.744;9.162;2022-12-07T01:01:34;96127.81;;;5.27;100.00
11198;BME280;5655;48.744;9.162;2022-12-07T01:04:00;96128.28;;;5.17;100.00
11198;BME280;5655;48.744;9.162;2022-12-07T01:06:29;96126.06;;;5.07;100.00
11198;BME280;5655;48.744;9.162;2022-12-07T01:08:55;96126.06;;;5.07;100.00
11198;BME280;5655;48.744;9.162;2022-12-07T01:11:23;96121.97;;;5.21;100.00
11198;BME280;5655;48.744;9.162;2022-12-07T01:13:50;96124.16;;;5.19;100.00
11198;BME280;5655;48.744;9.162;2022-12-07T01:16:17;96132.03;;;5.16;100.00
11198;BME280;5655;48.744;9.162;2022-12-07T01:18:45;96125.81;;;5.36;100.00
11198;BME280;5655;48.744;9.162;2022-12-07T01:21:14;96130.88;;;5.41;100.00
11198;BME280;5655;48.744;9.162;2022-12-07T01:23:40;96129.91;;;5.09;100.00
11198;BME280;5655;48.744;9.162;2022-12-07T01:26:09;96128.28;;;5.57;100.00
11198;BME280;5655;48.744;9.162;2022-12-07T01:28:34;96133.56;;;4.68;100.00
11198;BME280;5655;48.744;9.162;2022-12-07T01:31:00;96137.75;;;5.06;100.00
11198;BME280;5655;48.744;9.162;2022-12-07T01:33:28;96140.22;;;4.98;100.00
11198;BME280;5655;48.744;9.162;2022-12-07T01:35:54;96145.50;;;4.74;100.00
11198;BME280;5655;48.744;9.162;2022-12-07T01:38:19;96142.41;;;4.96;100.00
11198;BME280;5655;48.744;9.162;2022-12-07T01:40:45;96144.50;;;5.15;100.00
11198;BME280;5655;48.744;9.162;2022-12-07T01:43:17;96143.81;;;5.42;100.00
11198;BME280;5655;48.744;9.162;2022-12-07T01:45:43;96154.34;;;5.15;100.00
11198;BME280;5655;48.744;9.162;2022-12-07T01:48:09;96153.44;;;5.23;100.00
11198;BME280;5655;48.744;9.162;2022-12-07T01:50:37;96148.41;;;5.18;100.00
11198;BME280;5655;48.744;9.162;2022-12-07T01:53:05;96144.59;;;5.43;100.00
11198;BME280;5655;48.744;9.162;2022-12-07T01:55:32;96147.28;;;5.07;100.00
11198;BME280;5655;48.744;9.162;2022-12-07T01:57:58;96142.72;;;5.19;100.00
11198;BME280;5655;48.744;9.162;2022-12-07T02:00:23;96144.59;;;5.19;100.00
11198;BME280;5655;48.744;9.162;2022-12-07T02:05:26;96141.44;;;5.13;100.00
11198;BME280;5655;48.744;9.162;2022-12-07T02:07:53;96148.25;;;5.38;100.00
11198;BME280;5655;48.744;9.162;2022-12-07T02:10:28;96146.28;;;5.23;100.00
11198;BME280;5655;48.744;9.162;2022-12-07T02:13:24;96143.94;;;5.46;100.00
11198;BME280;5655;48.744;9.162;2022-12-07T02:16:23;96143.94;;;5.46;100.00
11198;BME280;5655;48.744;9.162;2022-12-07T02:19:05;96141.84;;;5.27;100.00
11198;BME280;5655;48.744;9.162;2022-12-07T02:21:46;96144.16;;;5.29;100.00
11198;BME280;5655;48.744;9.162;2022-12-07T02:30:06;96126.94;;;4.86;100.00
11198;BME280;5655;48.744;9.162;2022-12-07T02:38:25;96120.84;;;5.10;100.00
11198;BME280;5655;48.744;9.162;2022-12-07T02:40:59;96124.94;;;5.20;100.00
11198;BME280;5655;48.744;9.162;2022-12-07T02:43:34;96119.84;;;5.27;100.00
11198;BME280;5655;48.744;9.162;2022-12-07T02:46:04;96125.75;;;4.96;100.00
11198;BME280;5655;48.744;9.162;2022-12-07T02:48:32;96120.53;;;4.99;100.00
11198;BME280;5655;48.744;9.162;2022-12-07T02:50:58;96121.53;;;4.83;100.00
11198;BME280;5655;48.744;9.162;2022-12-07T02:53:37;96117.44;;;5.22;100.00
11198;BME280;5655;48.744;9.162;2022-12-07T02:59:59;96115.22;;;5.12;100.00
11198;BME280;5655;48.744;9.162;2022-12-07T03:02:38;96112.78;;;5.19;100.00
11198;BME280;5655;48.744;9.162;2022-12-07T03:10:24;96109.34;;;5.18;100.00
11198;BME280;5655;48.744;9.162;2022-12-07T03:12:56;96102.41;;;4.77;100.00
11198;BME280;5655;48.744;9.162;2022-12-07T03:15:58;96106.28;;;5.16;100.00
11198;BME280;5655;48.744;9.162;2022-12-07T03:18:29;96104.28;;;5.13;100.00
11198;BME280;5655;48.744;9.162;2022-12-07T03:20:58;96106.16;;;4.88;100.00
11198;BME280;5655;48.744;9.162;2022-12-07T03:23:27;96103.97;;;5.02;100.00
11198;BME280;5655;48.744;9.162;2022-12-07T03:25:57;96102.41;;;5.01;100.00
11198;BME280;5655;48.744;9.162;2022-12-07T03:28:26;96098.88;;;4.97;100.00
11198;BME280;5655;48.744;9.162;2022-12-07T03:31:01;96105.19;;;5.17;100.00
11198;BME280;5655;48.744;9.162;2022-12-07T03:33:33;96097.78;;;4.98;100.00
11198;BME280;5655;48.744;9.162;2022-12-07T03:36:11;96098.00;;;4.93;100.00
11198;BME280;5655;48.744;9.162;2022-12-07T03:38:54;96101.38;;;5.42;100.00
11198;BME280;5655;48.744;9.162;2022-12-07T03:41:25;96096.22;;;4.97;100.00
11198;BME280;5655;48.744;9.162;2022-12-07T03:43:54;96099.88;;;4.93;100.00
11198;BME280;5655;48.744;9.162;2022-12-07T03:46:30;96082.94;;;5.10;100.00
11198;BME280;5655;48.744;9.162;2022-12-07T03:51:45;96101.09;;;5.08;100.00
11198;BME280;5655;48.744;9.162;2022-12-07T03:54:23;96099.22;;;5.08;100.00
11198;BME280;5655;48.744;9.162;2022-12-07T03:56:51;96093.44;;;5.06;100.00
11198;BME280;5655;48.744;9.162;2022-12-07T03:59:18;96084.28;;;4.79;100.00
11198;BME280;5655;48.744;9.162;2022-12-07T04:01:48;96081.22;;;4.77;100.00
11198;BME280;5655;48.744;9.162;2022-12-07T04:04:16;96084.75;;;4.69;100.00
11198;BME280;5655;48.744;9.162;2022-12-07T04:06:42;96092.69;;;4.57;100.00
11198;BME280;5655;48.744;9.162;2022-12-07T04:09:07;96087.16;;;4.50;100.00
11198;BME280;5655;48.744;9.162;2022-12-07T04:11:32;96081.63;;;4.67;100.00
11198;BME280;5655;48.744;9.162;2022-12-07T04:13:57;96078.25;;;4.79;100.00
11198;BME280;5655;48.744;9.162;2022-12-07T04:16:41;96077.88;;;5.05;100.00
11198;BME280;5655;48.744;9.162;2022-12-07T04:19:07;96082.75;;;5.02;100.00
11198;BME280;5655;48.744;9.162;2022-12-07T04:21:32;96083.31;;;4.96;100.00
11198;BME280;5655;48.744;9.162;2022-12-07T04:23:57;96078.09;;;4.75;100.00
11198;BME280;5655;48.744;9.162;2022-12-07T04:26:23;96082.22;;;4.73;100.00
11198;BME280;5655;48.744;9.162;2022-12-07T04:28:48;96084.41;;;4.58;100.00
11198;BME280;5655;48.744;9.162;2022-12-07T04:31:13;96084.75;;;4.69;100.00
11198;BME280;5655;48.744;9.162;2022-12-07T04:33:38;96091.56;;;4.58;100.00
11198;BME280;5655;48.744;9.162;2022-12-07T04:36:04;96086.50;;;4.53;100.00
11198;BME280;5655;48.744;9.162;2022-12-07T04:38:30;96078.34;;;4.70;100.00
11198;BME280;5655;48.744;9.162;2022-12-07T04:40:55;96066.50;;;4.68;100.00
11198;BME280;5655;48.744;9.162;2022-12-07T04:43:20;96055.34;;;4.26;100.00
11198;BME280;5655;48.744;9.162;2022-12-07T04:45:48;96063.06;;;4.79;100.00
11198;BME280;5655;48.744;9.162;2022-12-07T04:48:14;96056.13;;;4.75;100.00
11198;BME280;5655;48.744;9.162;2022-12-07T04:50:40;96055.13;;;4.91;100.00
11198;BME280;5655;48.744;9.162;2022-12-07T04:53:05;96059.44;;;4.60;100.00
11198;BME280;5655;48.744;9.162;2022-12-07T04:55:30;96063.66;;;4.48;100.00
11198;BME280;5655;48.744;9.162;2022-12-07T04:57:56;96062.97;;;4.51;100.00
11198;BME280;5655;48.744;9.162;2022-12-07T05:00:21;96070.16;;;4.63;100.00
11198;BME280;5655;48.744;9.162;2022-12-07T05:02:46;96058.88;;;4.66;100.00
11198;BME280;5655;48.744;9.162;2022-12-07T05:05:12;96059.75;;;4.34;100.00
11198;BME280;5655;48.744;9.162;2022-12-07T05:07:37;96051.28;;;4.77;100.00
11198;BME280;5655;48.744;9.162;2022-12-07T05:10:03;96051.84;;;4.82;100.00
11198;BME280;5655;48.744;9.162;2022-12-07T05:12:28;96063.28;;;5.11;100.00
11198;BME280;5655;48.744;9.162;2022-12-07T05:14:53;96060.22;;;4.84;100.00
11198;BME280;5655;48.744;9.162;2022-12-07T05:17:19;96058.78;;;4.63;100.00
11198;BME280;5655;48.744;9.162;2022-12-07T05:19:44;96065.38;;;5.05;100.00
11198;BME280;5655;48.744;9.162;2022-12-07T05:22:09;96060.06;;;5.05;100.00
11198;BME280;5655;48.744;9.162;2022-12-07T05:24:35;96072.81;;;4.75;100.00
11198;BME280;5655;48.744;9.162;2022-12-07T05:27:00;96065.09;;;4.70;100.00
11198;BME280;5655;48.744;9.162;2022-12-07T05:29:26;96075.00;;;4.49;100.00
11198;BME280;5655;48.744;9.162;2022-12-07T05:31:51;96064.66;;;4.56;100.00
11198;BME280;5655;48.744;9.162;2022-12-07T05:34:17;96064.75;;;4.72;100.00
11198;BME280;5655;48.744;9.162;2022-12-07T05:36:42;96073.47;;;4.72;100.00
11198;BME280;5655;48.744;9.162;2022-12-07T05:39:08;96073.47;;;4.72;100.00
11198;BME280;5655;48.744;9.162;2022-12-07T05:41:33;96078.34;;;4.82;100.00
11198;BME280;5655;48.744;9.162;2022-12-07T05:44:17;96080.53;;;4.92;100.00
11198;BME280;5655;48.744;9.162;2022-12-07T05:46:42;96094.13;;;4.91;100.00
11198;BME280;5655;48.744;9.162;2022-12-07T05:49:07;96087.03;;;4.34;100.00
11198;BME280;5655;48.744;9.162;2022-12-07T05:51:33;96097.66;;;4.46;100.00
11198;BME280;5655;48.744;9.162;2022-12-07T05:53:58;96091.44;;;3.97;100.00
11198;BME280;5655;48.744;9.162;2022-12-07T05:56:25;96092.66;;;4.33;100.00
11198;BME280;5655;48.744;9.162;2022-12-07T05:58:51;96085.19;;;4.02;100.00
11198;BME280;5655;48.744;9.162;2022-12-07T06:01:35;96089.56;;;3.65;100.00
11198;BME280;5655;48.744;9.162;2022-12-07T06:04:00;96089.66;;;3.89;100.00
11198;BME280;5655;48.744;9.162;2022-12-07T06:06:26;96095.84;;;3.93;100.00
11198;BME280;5655;48.744;9.162;2022-12-07T06:08:51;96091.53;;;4.22;100.00
11198;BME280;5655;48.744;9.162;2022-12-07T06:11:17;96093.66;;;4.40;100.00
11198;BME280;5655;48.744;9.162;2022-12-07T06:14:01;96080.81;;;4.18;100.00
11198;BME280;5655;48.744;9.162;2022-12-07T06:16:26;96083.94;;;4.44;100.00
11198;BME280;5655;48.744;9.162;2022-12-07T06:18:51;96088.28;;;4.61;100.00
11198;BME280;5655;48.744;9.162;2022-12-07T06:21:17;96090.47;;;4.71;100.00
11198;BME280;5655;48.744;9.162;2022-12-07T06:23:42;96089.09;;;4.17;100.00
11198;BME280;5655;48.744;9.162;2022-12-07T06:26:07;96094.19;;;4.34;100.00
11198;BME280;5655;48.744;9.162;2022-12-07T06:28:32;96095.28;;;4.33;100.00
11198;BME280;5655;48.744;9.162;2022-12-07T06:30:58;96108.59;;;4.57;100.00
11198;BME280;5655;48.744;9.162;2022-12-07T06:33:25;96107.47;;;4.46;100.00
11198;BME280;5655;48.744;9.162;2022-12-07T06:35:50;96106.16;;;4.40;100.00
11198;BME280;5655;48.744;9.162;2022-12-07T06:38:16;96100.81;;;4.28;100.00
11198;BME280;5655;48.744;9.162;2022-12-07T06:40:41;96101.50;;;4.49;100.00
11198;BME280;5655;48.744;9.162;2022-12-07T06:43:06;96109.13;;;4.38;100.00
11198;BME280;5655;48.744;9.162;2022-12-07T06:45:32;96109.88;;;4.39;100.00
11198;BME280;5655;48.744;9.162;2022-12-07T06:47:58;96106.00;;;4.36;100.00
11198;BME280;5655;48.744;9.162;2022-12-07T06:50:23;96102.84;;;4.43;100.00
11198;BME280;5655;48.744;9.162;2022-12-07T06:52:48;96097.25;;;4.24;100.00
11198;BME280;5655;48.744;9.162;2022-12-07T06:55:15;96092.34;;;4.01;100.00
11198;BME280;5655;48.744;9.162;2022-12-07T06:57:41;96097.63;;;4.01;100.00
11198;BME280;5655;48.744;9.162;2022-12-07T07:00:06;96093.38;;;4.09;100.00
11198;BME280;5655;48.744;9.162;2022-12-07T07:02:32;96098.31;;;3.98;100.00
11198;BME280;5655;48.744;9.162;2022-12-07T07:04:57;96096.28;;;4.28;100.00
11198;BME280;5655;48.744;9.162;2022-12-07T07:07:22;96099.19;;;4.35;100.00
11198;BME280;5655;48.744;9.162;2022-12-07T07:09:48;96109.97;;;4.30;100.00
11198;BME280;5655;48.744;9.162;2022-12-07T07:12:13;96112.66;;;4.67;100.00
11198;BME280;5655;48.744;9.162;2022-12-07T07:14:38;96111.47;;;4.76;100.00
11198;BME280;5655;48.744;9.162;2022-12-07T07:17:04;96112.13;;;4.73;100.00
11198;BME280;5655;48.744;9.162;2022-12-07T07:19:29;96108.91;;;4.55;100.00
11198;BME280;5655;48.744;9.162;2022-12-07T07:21:54;96114.09;;;4.40;100.00
11198;BME280;5655;48.744;9.162;2022-12-07T07:24:19;96119.09;;;4.66;100.00
11198;BME280;5655;48.744;9.162;2022-12-07T07:26:45;96113.03;;;4.77;100.00
11198;BME280;5655;48.744;9.162;2022-12-07T07:29:10;96112.91;;;4.62;100.00
11198;BME280;5655;48.744;9.162;2022-12-07T07:31:35;96132.88;;;4.59;100.00
11198;BME280;5655;48.744;9.162;2022-12-07T07:34:02;96121.75;;;4.78;100.00
11198;BME280;5655;48.744;9.162;2022-12-07T07:36:27;96125.81;;;4.75;100.00
11198;BME280;5655;48.744;9.162;2022-12-07T07:38:52;96126.16;;;4.62;100.00
11198;BME280;5655;48.744;9.162;2022-12-07T07:41:18;96118.25;;;4.29;100.00
11198;BME280;5655;48.744;9.162;2022-12-07T07:43:43;96133.09;;;4.54;100.00
11198;BME280;5655;48.744;9.162;2022-12-07T07:46:08;96132.91;;;4.83;100.00
11198;BME280;5655;48.744;9.162;2022-12-07T07:48:34;96129.91;;;4.73;100.00
11198;BME280;5655;48.744;9.162;2022-12-07T07:50:59;96124.59;;;4.61;100.00
11198;BME280;5655;48.744;9.162;2022-12-07T07:53:25;96134.66;;;4.67;100.00
11198;BME280;5655;48.744;9.162;2022-12-07T07:55:54;96137.97;;;4.88;100.00
11198;BME280;5655;48.744;9.162;2022-12-07T07:58:20;96132.88;;;4.59;100.00
11198;BME280;5655;48.744;9.162;2022-12-07T08:00:46;96129.47;;;4.58;100.00
11198;BME280;5655;48.744;9.162;2022-12-07T08:03:11;96129.38;;;4.91;100.00
11198;BME280;5655;48.744;9.162;2022-12-07T08:05:38;96125.59;;;4.92;100.00
11198;BME280;5655;48.744;9.162;2022-12-07T08:08:04;96130.69;;;4.85;100.00
11198;BME280;5655;48.744;9.162;2022-12-07T08:10:30;96131.38;;;4.82;100.00
11198;BME280;5655;48.744;9.162;2022-12-07T08:12:57;96128.38;;;4.84;100.00
11198;BME280;5655;48.744;9.162;2022-12-07T08:15:46;96131.81;;;5.09;100.00
11198;BME280;5655;48.744;9.162;2022-12-07T08:18:13;96129.03;;;4.93;100.00
11198;BME280;5655;48.744;9.162;2022-12-07T08:20:39;96138.88;;;4.80;100.00
11198;BME280;5655;48.744;9.162;2022-12-07T08:23:06;96132.69;;;4.76;100.00
11198;BME280;5655;48.744;9.162;2022-12-07T08:25:32;96140.88;;;4.95;100.00
11198;BME280;5655;48.744;9.162;2022-12-07T08:27:58;96139.53;;;4.65;100.00
11198;BME280;5655;48.744;9.162;2022-12-07T08:30:23;96137.75;;;4.69;100.00
11198;BME280;5655;48.744;9.162;2022-12-07T08:32:49;96142.44;;;5.09;100.00
11198;BME280;5655;48.744;9.162;2022-12-07T08:35:15;96138.91;;;5.05;100.00
11198;BME280;5655;48.744;9.162;2022-12-07T08:37:40;96144.41;;;4.87;100.00
11198;BME280;5655;48.744;9.162;2022-12-07T08:40:08;96145.97;;;5.13;100.00
11198;BME280;5655;48.744;9.162;2022-12-07T08:42:33;96145.06;;;5.09;100.00
11198;BME280;5655;48.744;9.162;2022-12-07T08:45:13;96149.59;;;4.96;100.00
11198;BME280;5655;48.744;9.162;2022-12-07T08:47:43;96149.16;;;4.94;100.00
11198;BME280;5655;48.744;9.162;2022-12-07T08:50:11;96149.81;;;5.15;100.00
11198;BME280;5655;48.744;9.162;2022-12-07T08:52:39;96145.50;;;4.74;100.00
11198;BME280;5655;48.744;9.162;2022-12-07T08:55:06;96149.38;;;5.01;100.00
11198;BME280;5655;48.744;9.162;2022-12-07T08:57:33;96148.38;;;4.81;100.00
11198;BME280;5655;48.744;9.162;2022-12-07T09:00:00;96155.44;;;4.89;100.00
11198;BME280;5655;48.744;9.162;2022-12-07T09:02:25;96149.72;;;4.87;100.00
11198;BME280;5655;48.744;9.162;2022-12-07T09:04:51;96154.81;;;5.05;100.00
11198;BME280;5655;48.744;9.162;2022-12-07T09:07:16;96157.06;;;4.57;100.00
11198;BME280;5655;48.744;9.162;2022-12-07T09:09:41;96147.91;;;4.67;100.00
11198;BME280;5655;48.744;9.162;2022-12-07T09:12:07;96151.38;;;5.16;100.00
11198;BME280;5655;48.744;9.162;2022-12-07T09:14:33;96150.59;;;4.91;100.00
11198;BME280;5655;48.744;9.162;2022-12-07T09:17:06;96147.94;;;5.28;100.00
11198;BME280;5655;48.744;9.162;2022-12-07T09:19:32;96150.69;;;5.31;100.00
11198;BME280;5655;48.744;9.162;2022-12-07T09:21:57;96155.41;;;5.50;100.00
11198;BME280;5655;48.744;9.162;2022-12-07T09:24:22;96147.47;;;5.14;100.00
11198;BME280;5655;48.744;9.162;2022-12-07T09:26:48;96151.13;;;5.33;100.00
11198;BME280;5655;48.744;9.162;2022-12-07T09:29:13;96147.94;;;5.28;100.00
11198;BME280;5655;48.744;9.162;2022-12-07T09:31:38;96146.13;;;5.44;100.00
11198;BME280;5655;48.744;9.162;2022-12-07T09:34:04;96145.59;;;5.38;100.00
11198;BME280;5655;48.744;9.162;2022-12-07T09:36:31;96152.78;;;5.14;100.00
11198;BME280;5655;48.744;9.162;2022-12-07T09:38:57;96143.28;;;5.25;100.00
11198;BME280;5655;48.744;9.162;2022-12-07T09:41:24;96143.94;;;5.34;100.00
11198;BME280;5655;48.744;9.162;2022-12-07T09:43:51;96142.50;;;5.36;100.00
11198;BME280;5655;48.744;9.162;2022-12-07T09:46:19;96134.38;;;5.57;100.00
11198;BME280;5655;48.744;9.162;2022-12-07T09:48:45;96135.75;;;5.27;100.00
11198;BME280;5655;48.744;9.162;2022-12-07T09:51:18;96134.03;;;5.71;100.00
11198;BME280;5655;48.744;9.162;2022-12-07T09:53:45;96136.84;;;5.50;100.00
11198;BME280;5655;48.744;9.162;2022-12-07T09:56:15;96135.72;;;5.63;100.00
11198;BME280;5655;48.744;9.162;2022-12-07T09:58:41;96137.91;;;5.61;100.00
11198;BME280;5655;48.744;9.162;2022-12-07T10:03:33;96125.03;;;5.87;100.00
11198;BME280;5655;48.744;9.162;2022-12-07T10:05:59;96128.50;;;5.64;100.00
11198;BME280;5655;48.744;9.162;2022-12-07T10:08:25;96123.41;;;5.71;100.00
11198;BME280;5655;48.744;9.162;2022-12-07T10:10:53;96124.31;;;6.03;100.00
11198;BME280;5655;48.744;9.162;2022-12-07T10:13:21;96123.63;;;6.06;100.00
11198;BME280;5655;48.744;9.162;2022-12-07T10:15:53;96116.59;;;5.98;100.00
11198;BME280;5655;48.744;9.162;2022-12-07T10:18:28;96108.66;;;5.85;100.00
11198;BME280;5655;48.744;9.162;2022-12-07T10:23:41;96112.59;;;6.04;100.00
11198;BME280;5655;48.744;9.162;2022-12-07T10:28:50;96101.34;;;5.95;100.00
11198;BME280;5655;48.744;9.162;2022-12-07T10:31:21;96107.47;;;6.26;100.00
11198;BME280;5655;48.744;9.162;2022-12-07T10:36:18;96101.03;;;6.12;100.00
11198;BME280;5655;48.744;9.162;2022-12-07T10:39:11;96099.56;;;6.14;100.00
11198;BME280;5655;48.744;9.162;2022-12-07T10:41:33;96103.00;;;6.15;100.00
11198;BME280;5655;48.744;9.162;2022-12-07T10:43:59;96103.75;;;6.00;100.00
11198;BME280;5655;48.744;9.162;2022-12-07T10:46:48;96099.88;;;6.25;100.00
11198;BME280;5655;48.744;9.162;2022-12-07T10:52:30;96099.09;;;6.40;100.00
11198;BME280;5655;48.744;9.162;2022-12-07T11:01:08;96090.34;;;6.39;100.00
11198;BME280;5655;48.744;9.162;2022-12-07T11:07:10;96079.31;;;6.53;100.00
11198;BME280;5655;48.744;9.162;2022-12-07T11:14:56;96076.38;;;6.27;100.00
11198;BME280;5655;48.744;9.162;2022-12-07T11:17:35;96074.47;;;6.74;100.00
11198;BME280;5655;48.744;9.162;2022-12-07T11:20:12;96069.78;;;6.68;100.00
11198;BME280;5655;48.744;9.162;2022-12-07T11:31:29;96063.16;;;6.77;100.00
11198;BME280;5655;48.744;9.162;2022-12-07T11:34:10;96064.91;;;6.54;100.00
11198;BME280;5655;48.744;9.162;2022-12-07T11:36:44;96059.56;;;6.86;100.00
11198;BME280;5655;48.744;9.162;2022-12-07T11:39:44;96056.66;;;6.59;100.00
11198;BME280;5655;48.744;9.162;2022-12-07T11:47:53;96043.41;;;6.78;100.00
11198;BME280;5655;48.744;9.162;2022-12-07T11:50:32;96040.56;;;7.03;100.00
11198;BME280;5655;48.744;9.162;2022-12-07T11:56:03;96032.38;;;6.76;100.00
11198;BME280;5655;48.744;9.162;2022-12-07T12:06:33;96022.19;;;6.47;100.00
11198;BME280;5655;48.744;9.162;2022-12-07T12:09:09;96024.81;;;6.78;100.00
11198;BME280;5655;48.744;9.162;2022-12-07T12:12:02;96025.91;;;6.77;100.00
11198;BME280;5655;48.744;9.162;2022-12-07T12:15:16;96010.59;;;6.71;100.00
11198;BME280;5655;48.744;9.162;2022-12-07T12:20:49;96015.19;;;6.74;100.00
11198;BME280;5655;48.744;9.162;2022-12-07T12:23:19;96022.34;;;6.54;100.00
11198;BME280;5655;48.744;9.162;2022-12-07T12:25:52;96012.09;;;6.88;100.00
11198;BME280;5655;48.744;9.162;2022-12-07T12:28:21;96010.78;;;6.62;100.00
11198;BME280;5655;48.744;9.162;2022-12-07T12:33:33;96015.34;;;6.46;100.00
11198;BME280;5655;48.744;9.162;2022-12-07T12:51:51;96004.97;;;6.41;100.00
11198;BME280;5655;48.744;9.162;2022-12-07T12:54:25;96005.44;;;6.62;100.00
11198;BME280;5655;48.744;9.162;2022-12-07T12:57:41;96001.00;;;6.51;100.00
11198;BME280;5655;48.744;9.162;2022-12-07T13:00:14;96000.41;;;5.95;100.00
11198;BME280;5655;48.744;9.162;2022-12-07T13:02:52;95992.53;;;6.14;100.00
11198;BME280;5655;48.744;9.162;2022-12-07T13:05:21;95988.06;;;6.02;100.00
11198;BME280;5655;48.744;9.162;2022-12-07T13:07:52;95987.38;;;5.89;100.00
11198;BME280;5655;48.744;9.162;2022-12-07T13:15:41;95983.59;;;5.63;100.00
11198;BME280;5655;48.744;9.162;2022-12-07T13:26:19;95969.81;;;6.32;100.00
11198;BME280;5655;48.744;9.162;2022-12-07T13:31:19;95980.44;;;6.32;100.00
11198;BME280;5655;48.744;9.162;2022-12-07T13:33:47;95975.91;;;6.17;100.00
11198;BME280;5655;48.744;9.162;2022-12-07T13:36:22;95966.28;;;6.28;100.00
11198;BME280;5655;48.744;9.162;2022-12-07T13:38:56;95964.25;;;6.06;100.00
11198;BME280;5655;48.744;9.162;2022-12-07T13:41:26;95983.09;;;6.01;100.00
11198;BME280;5655;48.744;9.162;2022-12-07T13:46:46;95966.19;;;6.56;100.00
11198;BME280;5655;48.744;9.162;2022-12-07T13:49:26;95974.00;;;6.02;100.00
11198;BME280;5655;48.744;9.162;2022-12-07T13:51:53;95976.66;;;6.17;100.00
11198;BME280;5655;48.744;9.162;2022-12-07T13:54:20;95978.56;;;6.01;100.00
11198;BME280;5655;48.744;9.162;2022-12-07T13:56:52;95969.81;;;6.16;100.00
11198;BME280;5655;48.744;9.162;2022-12-07T13:59:21;95972.22;;;6.06;100.00
11198;BME280;5655;48.744;9.162;2022-12-07T14:01:48;95970.06;;;6.27;100.00
11198;BME280;5655;48.744;9.162;2022-12-07T14:04:35;95969.78;;;6.63;100.00
11198;BME280;5655;48.744;9.162;2022-12-07T14:07:20;95969.47;;;6.33;100.00
11198;BME280;5655;48.744;9.162;2022-12-07T14:09:56;95976.41;;;6.38;100.00
11198;BME280;5655;48.744;9.162;2022-12-07T14:12:22;95975.56;;;6.34;100.00
11198;BME280;5655;48.744;9.162;2022-12-07T14:14:48;95971.78;;;5.88;100.00
11198;BME280;5655;48.744;9.162;2022-12-07T14:17:20;95969.31;;;5.67;100.00
11198;BME280;5655;48.744;9.162;2022-12-07T14:24:50;95964.81;;;6.30;100.00
11198;BME280;5655;48.744;9.162;2022-12-07T14:27:22;95967.47;;;6.30;100.00
11198;BME280;5655;48.744;9.162;2022-12-07T14:29:47;95967.41;;;5.96;100.00
11198;BME280;5655;48.744;9.162;2022-12-07T14:32:21;95960.63;;;6.14;100.00
11198;BME280;5655;48.744;9.162;2022-12-07T14:35:09;95959.03;;;6.25;100.00
11198;BME280;5655;48.744;9.162;2022-12-07T14:37:36;95967.50;;;6.15;100.00
11198;BME280;5655;48.744;9.162;2022-12-07T14:40:02;95959.44;;;6.11;100.00
11198;BME280;5655;48.744;9.162;2022-12-07T14:42:30;95962.78;;;6.24;100.00
11198;BME280;5655;48.744;9.162;2022-12-07T14:44:57;95969.72;;;6.13;100.00
11198;BME280;5655;48.744;9.162;2022-12-07T14:47:24;95973.75;;;6.07;100.00
11198;BME280;5655;48.744;9.162;2022-12-07T14:49:49;95957.50;;;6.08;100.00
11198;BME280;5655;48.744;9.162;2022-12-07T14:52:21;95972.31;;;6.25;100.00
11198;BME280;5655;48.744;9.162;2022-12-07T14:54:47;95966.28;;;5.97;100.00
11198;BME280;5655;48.744;9.162;2022-12-07T14:57:12;95964.88;;;5.71;100.00
11198;BME280;5655;48.744;9.162;2022-12-07T14:59:37;95969.59;;;5.78;100.00
11198;BME280;5655;48.744;9.162;2022-12-07T15:02:04;95966.22;;;5.65;100.00
11198;BME280;5655;48.744;9.162;2022-12-07T15:04:29;95968.72;;;5.74;100.00
11198;BME280;5655;48.744;9.162;2022-12-07T15:06:56;95964.09;;;5.71;100.00
11198;BME280;5655;48.744;9.162;2022-12-07T15:09:22;95965.53;;;5.96;100.00
11198;BME280;5655;48.744;9.162;2022-12-07T15:11:47;95968.28;;;6.15;100.00
11198;BME280;5655;48.744;9.162;2022-12-07T15:14:12;95972.47;;;6.01;100.00
11198;BME280;5655;48.744;9.162;2022-12-07T15:16:40;95971.44;;;5.89;100.00
11198;BME280;5655;48.744;9.162;2022-12-07T15:19:11;95960.03;;;6.05;100.00
11198;BME280;5655;48.744;9.162;2022-12-07T15:21:37;95971.25;;;5.82;100.00
11198;BME280;5655;48.744;9.162;2022-12-07T15:24:02;95974.47;;;5.76;100.00